Asher, Kentucky
Current Conditions -  °F | °C
As of 10:15 AM on Thursday 18 Dec 2014 (Local Time) from KI35 Reporting Station
Clear Clear  
Wind Chill: 28°   Ceiling: Unl
Heat Index: 34°   Visibility: 10mi
Dew Point: 28°   Wind: 7mph
Humidity: 81%   Direction: 100°E
Pressure: 30.2"   Gusts: NA
Location:  37.04°N, 83.4°W
Report Text: KI35 181515Z AUTO 10006KT 10SM CLR 01/M02 A3020 RMK AO1
Loading
Personal Weather Stations






























Interactive Weather Map New forecast layout! Learn more

10-Day Weather Forecast

Advertisements
Track Severe Weather on mobile